Time;durP1;ratioP1;P1;durP2;ratioP2;P2;SDS_P1;SDS_P2;PMS_P1;PMS_P2;Temp;Humidity;BMP_temperature;BMP_pressure;BME280_temperature;BME280_humidity;BME280_pressure;Samples;Min_cycle;Max_cycle;Signal;HPM_P1;HPM_P2
2022/03/25 00:01:17;;;;;;;14.57;8.63;;;;;;;0.16;59.16;96294.60;1781759;80;21504;-74
2022/03/25 00:03:44;;;;;;;21.23;9.50;;;;;;;0.10;58.33;96294.38;1781718;80;21445;-74
2022/03/25 00:06:11;;;;;;;15.27;8.53;;;;;;;0.04;59.80;96295.07;1781758;80;21027;-74
2022/03/25 00:08:38;;;;;;;16.43;7.63;;;;;;;0.01;59.43;96301.45;1781463;80;21023;-74
2022/03/25 00:11:05;;;;;;;20.07;8.80;;;;;;;0.03;58.69;96297.21;1781900;80;21492;-74
2022/03/25 00:13:32;;;;;;;15.60;7.90;;;;;;;0.01;58.17;96292.38;1781870;80;20979;-74
2022/03/25 00:15:58;;;;;;;16.07;9.73;;;;;;;0.03;60.39;96291.14;1781752;80;21051;-74
2022/03/25 00:18:25;;;;;;;17.57;9.00;;;;;;;0.00;59.71;96297.12;1781844;80;21066;-74
2022/03/25 00:20:52;;;;;;;16.80;7.93;;;;;;;-0.01;59.36;96292.73;1781910;80;21018;-74
2022/03/25 00:23:20;;;;;;;15.70;8.40;;;;;;;-0.04;59.08;96290.92;1781450;80;20972;-74
2022/03/25 00:25:47;;;;;;;20.27;10.27;;;;;;;-0.04;58.70;96293.52;1781802;80;21010;-74
2022/03/25 00:28:14;;;;;;;19.17;8.37;;;;;;;0.03;58.06;96289.43;1781761;80;21002;-74
2022/03/25 00:30:43;;;;;;;20.80;10.17;;;;;;;-0.06;60.29;96291.28;1781670;80;20994;-74
2022/03/25 00:33:10;;;;;;;15.80;8.70;;;;;;;-0.10;59.06;96293.33;1781872;80;21545;-74
2022/03/25 00:35:38;;;;;;;17.13;8.63;;;;;;;-0.18;59.40;96289.99;1760111;80;20959;-74
2022/03/25 00:38:05;;;;;;;16.40;8.40;;;;;;;-0.28;60.52;96288.41;1781633;80;21030;-74
2022/03/25 00:40:32;;;;;;;16.63;9.00;;;;;;;-0.32;59.96;96294.30;1781841;80;21050;-74
2022/03/25 00:42:58;;;;;;;12.53;7.70;;;;;;;-0.28;60.17;96296.58;1781867;80;21007;-74
2022/03/25 00:45:28;;;;;;;15.10;7.37;;;;;;;-0.40;60.15;96291.87;1781725;80;20971;-74
2022/03/25 00:47:54;;;;;;;14.50;6.97;;;;;;;-0.42;59.71;96290.05;1781818;80;21460;-74
2022/03/25 00:50:23;;;;;;;15.73;8.50;;;;;;;-0.40;60.92;96293.16;1781984;80;21010;-74
2022/03/25 00:52:50;;;;;;;12.63;7.07;;;;;;;-0.45;60.18;96283.92;1781726;80;21416;-74
2022/03/25 00:55:17;;;;;;;14.07;7.67;;;;;;;-0.42;59.63;96283.57;1781737;80;21033;-74
2022/03/25 00:57:43;;;;;;;12.80;6.40;;;;;;;-0.44;61.18;96288.27;1782174;80;20999;-74
2022/03/25 01:00:10;;;;;;;15.00;7.50;;;;;;;-0.50;60.55;96293.25;1783000;80;21026;-74
2022/03/25 01:02:38;;;;;;;13.83;6.37;;;;;;;-0.50;60.01;96288.07;1783122;80;20967;-74
2022/03/25 01:05:06;;;;;;;19.23;8.37;;;;;;;-0.52;60.81;96285.83;1782929;80;21046;-74
2022/03/25 01:07:34;;;;;;;13.27;7.50;;;;;;;-0.57;60.01;96274.84;1782943;80;20969;-74
2022/03/25 01:10:02;;;;;;;10.87;6.47;;;;;;;-0.44;60.58;96276.59;1783033;80;20987;-74
2022/03/25 01:12:29;;;;;;;13.20;7.87;;;;;;;-0.40;60.41;96279.30;1782946;80;21019;-74
2022/03/25 01:14:56;;;;;;;10.90;6.67;;;;;;;-0.52;61.27;96280.65;1783127;80;21004;-74
2022/03/25 01:17:22;;;;;;;11.23;6.50;;;;;;;-0.54;60.42;96283.59;1783104;80;21003;-74
2022/03/25 01:19:51;;;;;;;12.90;6.53;;;;;;;-0.53;61.09;96277.98;1782823;80;21058;-74
2022/03/25 01:22:18;;;;;;;10.93;5.90;;;;;;;-0.49;60.76;96279.45;1783023;80;21512;-74
2022/03/25 01:24:44;;;;;;;9.03;6.37;;;;;;;-0.52;60.09;96278.05;1783123;80;21010;-74
2022/03/25 01:27:11;;;;;;;9.33;5.97;;;;;;;-0.61;61.32;96278.14;1783130;80;20983;-74
2022/03/25 01:29:38;;;;;;;10.73;6.70;;;;;;;-0.68;60.68;96288.69;1783021;80;21402;-74
2022/03/25 01:32:08;;;;;;;12.67;7.27;;;;;;;-0.71;61.66;96287.30;1783075;80;20999;-74
2022/03/25 01:34:35;;;;;;;13.03;6.93;;;;;;;-0.66;61.42;96293.13;1782807;80;21027;-74
2022/03/25 01:37:03;;;;;;;15.77;8.40;;;;;;;-0.68;61.41;96289.60;1782616;80;21026;-74
2022/03/25 01:39:30;;;;;;;12.10;7.60;;;;;;;-0.73;60.86;96291.14;1783181;80;21014;-74
2022/03/25 01:41:57;;;;;;;11.03;6.10;;;;;;;-0.76;61.43;96289.72;1782899;80;21041;-74
2022/03/25 01:44:27;;;;;;;9.73;6.03;;;;;;;-0.76;61.20;96287.13;1782965;80;21042;-74
2022/03/25 01:46:57;;;;;;;34.90;19.23;;;;;;;-0.90;62.80;96285.34;1782940;80;20995;-74
2022/03/25 01:49:24;;;;;;;16.13;9.00;;;;;;;-0.92;61.96;96285.70;1783020;80;21061;-77
2022/03/25 01:51:55;;;;;;;13.37;7.43;;;;;;;-0.97;63.49;96291.54;1782958;80;20998;-76
2022/03/25 01:54:29;;;;;;;12.73;7.23;;;;;;;-0.95;62.35;96289.89;1783031;80;21485;-76
2022/03/25 01:57:02;;;;;;;12.93;7.80;;;;;;;-0.95;62.70;96286.01;1782508;80;21027;-76
2022/03/25 01:59:30;;;;;;;9.13;7.10;;;;;;;-0.89;61.84;96287.09;1782002;80;21050;-76
2022/03/25 02:01:57;;;;;;;15.20;8.10;;;;;;;-0.74;61.37;96280.71;1781538;80;20987;-76
2022/03/25 02:04:25;;;;;;;15.30;7.43;;;;;;;-0.68;60.69;96283.51;1781906;80;21002;-76
2022/03/25 02:06:53;;;;;;;13.87;8.50;;;;;;;-0.74;60.86;96285.89;1781852;80;21441;-76
2022/03/25 02:09:22;;;;;;;25.90;13.40;;;;;;;-0.86;62.46;96282.44;1781933;80;21007;-76
2022/03/25 02:11:48;;;;;;;11.23;6.87;;;;;;;-1.02;62.14;96286.61;1781996;80;21018;-76
2022/03/25 02:14:16;;;;;;;13.50;7.70;;;;;;;-1.10;63.41;96286.33;1781861;80;21007;-76
2022/03/25 02:16:46;;;;;;;14.73;7.67;;;;;;;-1.05;62.49;96286.50;1781755;80;21486;-76
2022/03/25 02:19:14;;;;;;;11.63;7.00;;;;;;;-0.95;62.38;96287.31;1781995;80;20998;-76
2022/03/25 02:21:41;;;;;;;9.60;6.20;;;;;;;-1.08;64.45;96293.74;1781839;80;21041;-76
2022/03/25 02:24:12;;;;;;;13.00;7.63;;;;;;;-1.18;62.94;96293.80;1781731;80;21026;-76
2022/03/25 02:26:40;;;;;;;12.23;7.03;;;;;;;-1.15;62.86;96286.56;1781931;80;21054;-76
2022/03/25 02:29:10;;;;;;;12.90;7.17;;;;;;;-1.24;63.74;96288.38;1781800;80;21429;-76
2022/03/25 02:31:38;;;;;;;13.10;8.63;;;;;;;-1.21;63.10;96288.52;1781855;80;21030;-76
2022/03/25 02:34:08;;;;;;;8.67;5.30;;;;;;;-1.20;62.72;96291.56;1781825;80;21484;-76
2022/03/25 02:36:40;;;;;;;10.57;6.67;;;;;;;-1.23;63.18;96290.16;1781921;80;21026;-76
2022/03/25 02:39:09;;;;;;;12.37;6.67;;;;;;;-1.30;62.55;96294.63;1781883;80;21532;-76
2022/03/25 02:41:37;;;;;;;16.67;7.40;;;;;;;-1.36;63.09;96295.29;1781871;80;21583;-76
2022/03/25 02:44:05;;;;;;;10.83;6.97;;;;;;;-1.31;63.13;96298.06;1781749;80;21014;-76
2022/03/25 02:46:32;;;;;;;12.73;7.30;;;;;;;-1.32;63.91;96296.27;1781971;80;21065;-76
2022/03/25 02:48:58;;;;;;;14.77;8.60;;;;;;;-1.44;64.70;96300.98;1781910;80;21457;-75
2022/03/25 02:51:26;;;;;;;14.37;7.27;;;;;;;-1.46;64.13;96303.53;1781987;80;20979;-75
2022/03/25 02:53:53;;;;;;;13.63;6.97;;;;;;;-1.36;63.50;96304.73;1781722;80;20971;-76
2022/03/25 02:56:19;;;;;;;16.87;7.90;;;;;;;-1.26;64.08;96312.06;1781834;80;20963;-76
2022/03/25 02:58:46;;;;;;;15.57;8.07;;;;;;;-1.24;64.02;96312.09;1782732;80;21433;-76
2022/03/25 03:01:13;;;;;;;15.17;7.37;;;;;;;-1.36;63.16;96304.34;1782941;80;20967;-75
2022/03/25 03:03:40;;;;;;;15.70;7.37;;;;;;;-1.38;63.40;96312.87;1783029;80;20983;-76
2022/03/25 03:06:07;;;;;;;12.27;7.30;;;;;;;-1.35;63.39;96315.58;1782875;80;21042;-76
2022/03/25 03:08:35;;;;;;;20.07;7.30;;;;;;;-1.42;63.47;96312.28;1782919;80;21512;-76
2022/03/25 03:11:03;;;;;;;11.80;6.23;;;;;;;-1.42;63.70;96319.63;1782876;80;21007;-76
2022/03/25 03:13:30;;;;;;;11.57;7.07;;;;;;;-1.51;63.41;96321.88;1782924;80;20987;-76
2022/03/25 03:15:57;;;;;;;13.73;7.13;;;;;;;-1.64;63.13;96326.98;1783041;80;21018;-76
2022/03/25 03:18:23;;;;;;;14.33;7.03;;;;;;;-1.68;63.49;96326.38;1782806;80;21053;-76
2022/03/25 03:20:50;;;;;;;14.67;9.53;;;;;;;-1.68;63.79;96326.38;1782971;80;21038;-76
2022/03/25 03:23:17;;;;;;;10.00;6.40;;;;;;;-1.71;65.67;96331.43;1782769;80;21496;-76
2022/03/25 03:25:43;;;;;;;13.77;8.27;;;;;;;-1.72;64.46;96323.59;1783063;80;21038;-76
2022/03/25 03:28:10;;;;;;;14.07;8.17;;;;;;;-1.79;66.09;96325.95;1782980;80;21453;-76
2022/03/25 03:30:37;;;;;;;10.33;6.20;;;;;;;-1.82;65.60;96324.92;1783033;80;20998;-75
2022/03/25 03:33:04;;;;;;;12.63;6.70;;;;;;;-1.83;65.14;96329.22;1782917;80;21007;-75
2022/03/25 03:35:35;;;;;;;10.90;6.77;;;;;;;-1.89;66.33;96331.95;1782977;80;21485;-75
2022/03/25 03:38:03;;;;;;;14.00;7.90;;;;;;;-1.92;65.21;96327.54;1782759;80;21018;-76
2022/03/25 03:40:30;;;;;;;14.57;7.10;;;;;;;-1.88;65.50;96334.62;1782855;80;21476;-75
2022/03/25 03:42:57;;;;;;;12.37;7.50;;;;;;;-1.75;65.14;96329.11;1782931;80;21030;-75
2022/03/25 03:45:23;;;;;;;12.07;7.07;;;;;;;-1.77;64.63;96322.11;1782879;80;21531;-75
2022/03/25 03:47:51;;;;;;;12.93;7.67;;;;;;;-1.82;65.44;96324.92;1782963;80;21046;-75
2022/03/25 03:50:18;;;;;;;8.97;5.60;;;;;;;-1.93;65.27;96330.96;1782892;80;21006;-76
2022/03/25 03:52:46;;;;;;;11.30;6.53;;;;;;;-1.99;66.33;96338.45;1783008;80;20972;-76
2022/03/25 03:55:13;;;;;;;13.40;7.80;;;;;;;-2.07;67.33;96335.96;1782574;80;21098;-76
2022/03/25 03:57:40;;;;;;;17.33;8.10;;;;;;;-2.07;67.03;96334.25;1782765;80;21046;-76
2022/03/25 04:00:11;;;;;;;11.20;6.50;;;;;;;-2.06;67.20;96332.16;1782811;80;21061;-76
2022/03/25 04:02:42;;;;;;;14.67;7.97;;;;;;;-2.03;66.90;96335.28;1782927;80;21007;-76
2022/03/25 04:05:10;;;;;;;10.93;6.90;;;;;;;-2.08;67.35;96335.08;1782882;80;21531;-76
2022/03/25 04:07:42;;;;;;;11.47;7.80;;;;;;;-2.18;66.68;96332.94;1782875;80;21034;-76
2022/03/25 04:10:10;;;;;;;11.37;6.40;;;;;;;-2.12;66.62;96333.17;1782820;80;21046;-76
2022/03/25 04:12:37;;;;;;;14.10;8.30;;;;;;;-2.19;66.36;96327.30;1782867;80;21585;-76
2022/03/25 04:15:05;;;;;;;12.17;6.93;;;;;;;-2.24;67.68;96333.56;1782957;80;20975;-76
2022/03/25 04:17:32;;;;;;;16.10;8.50;;;;;;;-2.34;66.98;96335.30;1782857;80;21023;-76
2022/03/25 04:19:58;;;;;;;19.87;9.50;;;;;;;-2.32;67.64;96334.05;1782900;80;20971;-75
2022/03/25 04:22:25;;;;;;;19.70;10.37;;;;;;;-2.35;66.93;96333.50;1782822;80;21029;-75
2022/03/25 04:24:55;;;;;;;21.17;10.07;;;;;;;-2.44;66.54;96338.30;1782800;80;20999;-75
2022/03/25 04:27:23;;;;;;;22.43;11.60;;;;;;;-2.41;67.18;96345.77;1782998;80;21054;-75
2022/03/25 04:29:50;;;;;;;22.73;10.40;;;;;;;-2.32;67.10;96335.34;1782829;80;20982;-75
2022/03/25 04:32:16;;;;;;;22.73;12.00;;;;;;;-2.33;68.42;96347.80;1782826;80;21071;-76
2022/03/25 04:34:43;;;;;;;17.77;9.00;;;;;;;-2.40;67.96;96344.94;1782965;80;21042;-76
2022/03/25 04:37:10;;;;;;;28.33;15.03;;;;;;;-2.43;68.53;96343.52;1783164;80;21037;-76
2022/03/25 04:39:37;;;;;;;68.50;33.03;;;;;;;-2.37;68.36;96348.47;1783064;80;21002;-76
2022/03/25 04:42:04;;;;;;;31.80;15.20;;;;;;;-2.29;68.17;96349.71;1783025;80;21026;-71
2022/03/25 04:44:31;;;;;;;24.23;11.90;;;;;;;-2.28;67.92;96355.34;1783040;80;21046;-71
2022/03/25 04:46:57;;;;;;;28.87;11.60;;;;;;;-2.21;67.59;96360.83;1782907;80;21025;-72
2022/03/25 04:49:24;;;;;;;16.93;7.80;;;;;;;-2.12;67.53;96356.45;1782940;80;21441;-71
2022/03/25 04:51:51;;;;;;;9.37;6.27;;;;;;;-2.11;68.28;96353.06;1783001;80;21508;-71
2022/03/25 04:54:18;;;;;;;21.30;9.93;;;;;;;-2.09;67.17;96350.14;1782906;80;21538;-71
2022/03/25 04:56:44;;;;;;;35.27;14.50;;;;;;;-2.09;67.05;96358.28;1782940;80;21006;-71
2022/03/25 04:59:11;;;;;;;59.27;26.90;;;;;;;-2.11;67.25;96350.89;1781973;80;21532;-71
2022/03/25 05:01:38;;;;;;;16.57;9.40;;;;;;;-2.16;68.17;96353.70;1782106;80;21021;-71
2022/03/25 05:04:04;;;;;;;11.67;7.63;;;;;;;-2.09;67.69;96354.02;1781712;80;21007;-71
2022/03/25 05:06:32;;;;;;;21.20;9.80;;;;;;;-1.99;68.15;96348.79;1781998;80;21464;-71
2022/03/25 05:08:59;;;;;;;64.83;27.47;;;;;;;-1.94;68.39;96350.28;1781816;80;21468;-71
2022/03/25 05:11:26;;;;;;;44.67;20.70;;;;;;;-1.82;68.80;96347.78;1781691;80;21050;-71
2022/03/25 05:13:52;;;;;;;41.40;18.40;;;;;;;-1.81;68.38;96354.75;1782072;80;21010;-71
2022/03/25 05:16:18;;;;;;;58.53;26.30;;;;;;;-1.70;67.93;96351.71;1782072;80;21488;-71
2022/03/25 05:18:45;;;;;;;62.03;30.33;;;;;;;-1.55;67.49;96353.62;1781974;80;21034;-71
2022/03/25 05:21:11;;;;;;;39.27;20.70;;;;;;;-1.40;66.93;96353.34;1782059;80;20991;-70
2022/03/25 05:23:38;;;;;;;36.50;17.87;;;;;;;-1.35;67.12;96357.00;1744844;82;21023;-70
2022/03/25 05:26:05;;;;;;;27.50;16.40;;;;;;;-1.28;67.05;96353.84;1744695;82;20972;-70
2022/03/25 05:28:31;;;;;;;51.40;24.67;;;;;;;-1.18;67.34;96357.25;1744977;82;21023;-70
2022/03/25 05:30:58;;;;;;;79.03;37.87;;;;;;;-1.25;69.82;96353.95;1745021;82;21007;-70
2022/03/25 05:33:24;;;;;;;73.63;36.13;;;;;;;-1.28;69.93;96355.13;1744720;82;21038;-70
2022/03/25 05:35:51;;;;;;;50.23;25.00;;;;;;;-1.25;69.32;96360.84;1744910;82;20995;-70
2022/03/25 05:38:17;;;;;;;57.03;30.60;;;;;;;-1.18;69.12;96361.55;1744674;82;21038;-70
2022/03/25 05:40:44;;;;;;;83.13;44.80;;;;;;;-0.97;68.59;96359.77;1744745;82;21015;-70
2022/03/25 05:43:12;;;;;;;163.33;77.93;;;;;;;-0.68;67.73;96363.84;1744817;82;21023;-70
2022/03/25 05:45:39;;;;;;;260.30;127.17;;;;;;;-0.49;67.01;96360.23;1744684;82;21014;-70
2022/03/25 05:48:06;;;;;;;125.73;60.87;;;;;;;-0.32;66.49;96363.44;1744691;82;21030;-70
2022/03/25 05:50:33;;;;;;;55.30;31.07;;;;;;;-0.22;66.24;96359.92;1744823;82;21492;-70
2022/03/25 05:52:59;;;;;;;69.50;41.40;;;;;;;-0.09;65.55;96353.87;1744826;82;21062;-71
2022/03/25 05:55:25;;;;;;;37.80;20.73;;;;;;;0.06;65.21;96354.39;1744626;82;21461;-70
2022/03/25 05:57:52;;;;;;;36.43;18.70;;;;;;;0.23;64.80;96356.65;1744633;82;21039;-71
2022/03/25 06:00:19;;;;;;;31.20;15.63;;;;;;;0.36;64.35;96362.73;1744596;82;21054;-71
2022/03/25 06:02:46;;;;;;;27.37;13.77;;;;;;;0.50;64.10;96344.58;1744867;82;21552;-69
2022/03/25 06:05:13;;;;;;;28.17;15.00;;;;;;;0.68;64.74;96341.71;1744044;82;21062;-68
2022/03/25 06:07:42;;;;;;;45.33;23.67;;;;;;;0.80;63.02;96348.56;1722679;82;21058;-68
2022/03/25 06:10:12;;;;;;;54.23;28.90;;;;;;;0.96;63.18;96343.83;1743406;82;21051;-72
2022/03/25 06:12:40;;;;;;;42.33;22.07;;;;;;;1.04;63.25;96338.47;1743139;82;21059;-71
2022/03/25 06:15:09;;;;;;;52.23;26.33;;;;;;;1.21;63.18;96342.45;1743782;82;21041;-67
2022/03/25 06:17:46;;;;;;;39.13;19.83;;;;;;;1.34;62.55;96342.39;1743269;82;21062;-69
2022/03/25 06:20:16;;;;;;;34.37;17.77;;;;;;;1.49;61.92;96341.53;1744242;82;21003;-68
2022/03/25 06:22:43;;;;;;;31.13;16.53;;;;;;;1.58;61.65;96340.02;1744011;82;21118;-68
2022/03/25 06:25:12;;;;;;;28.97;16.53;;;;;;;1.68;61.66;96342.03;1743645;82;21111;-69
2022/03/25 06:27:57;;;;;;;27.80;15.43;;;;;;;1.84;61.24;96340.72;1743907;82;21038;-69
2022/03/25 06:30:31;;;;;;;26.60;15.00;;;;;;;1.97;60.80;96340.66;1743863;82;21094;-68
2022/03/25 06:32:58;;;;;;;30.10;14.60;;;;;;;2.12;60.48;96343.23;1744223;82;21030;-69
2022/03/25 06:35:25;;;;;;;29.73;14.83;;;;;;;2.24;60.71;96345.25;1743266;82;21027;-70
2022/03/25 06:37:52;;;;;;;29.00;13.80;;;;;;;2.37;60.51;96338.23;1742830;82;21110;-73
2022/03/25 06:40:20;;;;;;;31.63;17.40;;;;;;;2.47;60.25;96340.64;1743254;82;21042;-69
2022/03/25 06:42:47;;;;;;;27.63;15.13;;;;;;;2.62;60.18;96335.33;1743712;82;21018;-69
2022/03/25 06:45:16;;;;;;;33.70;21.40;;;;;;;2.66;58.37;96329.36;1743539;82;21586;-67
2022/03/25 06:47:44;;;;;;;28.20;17.23;;;;;;;2.78;58.70;96337.47;1743628;82;21062;-68
2022/03/25 06:50:15;;;;;;;29.90;17.13;;;;;;;2.92;59.05;96333.42;1743602;82;21006;-67
2022/03/25 06:52:42;;;;;;;25.97;14.90;;;;;;;3.15;58.94;96334.36;1743402;82;21591;-70
2022/03/25 06:55:11;;;;;;;27.83;16.37;;;;;;;3.35;58.20;96333.09;1743260;82;21010;-70
2022/03/25 06:57:39;;;;;;;25.60;15.30;;;;;;;3.53;58.33;96323.47;1743764;82;21066;-71
2022/03/25 07:00:12;;;;;;;23.43;15.07;;;;;;;3.73;58.29;96332.09;1743618;82;21622;-65
2022/03/25 07:02:37;;;;;;;20.73;12.87;;;;;;;3.90;57.65;96330.26;1743720;82;21556;-68
2022/03/25 07:05:05;;;;;;;24.40;12.57;;;;;;;4.10;56.36;96334.98;1743570;82;21019;-68
2022/03/25 07:07:34;;;;;;;19.00;12.03;;;;;;;4.28;56.88;96331.81;1743677;82;21077;-67
2022/03/25 07:10:01;;;;;;;23.80;12.70;;;;;;;4.48;56.32;96333.47;1742957;82;21073;-69
2022/03/25 07:12:28;;;;;;;18.90;9.90;;;;;;;4.73;55.83;96327.78;1721880;82;21070;-69
2022/03/25 07:14:55;;;;;;;24.30;11.57;;;;;;;4.96;55.62;96333.39;1717832;83;21027;-68
2022/03/25 07:17:22;;;;;;;19.10;10.33;;;;;;;5.20;54.37;96335.90;1743380;82;21047;-67
2022/03/25 07:19:48;;;;;;;24.37;11.60;;;;;;;5.39;54.35;96329.16;1744290;82;21548;-67
2022/03/25 07:22:15;;;;;;;28.10;11.60;;;;;;;5.60;53.75;96326.84;1744529;82;21027;-67
2022/03/25 07:24:41;;;;;;;25.80;10.73;;;;;;;5.79;52.50;96333.59;1743544;82;21003;-67
2022/03/25 07:27:08;;;;;;;21.43;12.27;;;;;;;6.00;52.37;96339.12;1697929;82;21101;-67
2022/03/25 07:29:35;;;;;;;18.73;11.63;;;;;;;6.18;51.79;96326.65;1743886;82;21077;-69
2022/03/25 07:32:02;;;;;;;22.10;10.73;;;;;;;6.31;50.47;96327.64;1743963;82;21007;-68
2022/03/25 07:34:28;;;;;;;20.17;9.60;;;;;;;6.41;50.27;96315.51;1744130;82;21106;-70
2022/03/25 07:36:55;;;;;;;20.23;9.83;;;;;;;6.59;50.92;96323.53;1744106;82;21085;-69
2022/03/25 07:39:22;;;;;;;19.83;9.97;;;;;;;6.78;50.80;96324.98;1742688;82;21062;-67
2022/03/25 07:41:49;;;;;;;19.47;10.03;;;;;;;6.93;49.05;96322.06;1744249;82;20975;-67
2022/03/25 07:44:15;;;;;;;17.60;9.17;;;;;;;7.09;49.23;96320.85;1743940;82;21523;-67
2022/03/25 07:46:42;;;;;;;17.60;9.97;;;;;;;7.22;47.92;96320.05;1743922;82;21027;-67
2022/03/25 07:49:09;;;;;;;20.87;9.70;;;;;;;7.26;47.12;96324.91;1743350;82;21070;-69
2022/03/25 07:51:36;;;;;;;16.23;9.27;;;;;;;7.31;46.78;96319.25;1742925;82;21063;-66
2022/03/25 07:54:03;;;;;;;15.43;8.67;;;;;;;7.43;47.70;96321.04;1751191;82;20999;-66
2022/03/25 07:56:29;;;;;;;15.80;9.37;;;;;;;7.50;46.78;96328.08;1752320;82;21038;-67
2022/03/25 07:58:56;;;;;;;13.50;7.73;;;;;;;7.60;46.27;96324.63;1753480;81;21130;-67
2022/03/25 08:01:23;;;;;;;11.07;6.80;;;;;;;7.58;44.99;96315.86;1829720;78;21060;-68
2022/03/25 08:03:49;;;;;;;13.53;7.87;;;;;;;7.62;43.66;96317.64;1789237;80;21536;-66
2022/03/25 08:06:16;;;;;;;14.00;7.80;;;;;;;7.73;43.99;96315.05;1773866;80;21050;-69
2022/03/25 08:08:47;;;;;;;15.47;7.57;;;;;;;7.86;44.05;96311.63;1789352;80;21053;-68
2022/03/25 08:11:11;;;;;;;16.00;8.57;;;;;;;8.05;43.49;96318.23;1773814;81;21063;-68
2022/03/25 08:13:38;;;;;;;13.80;8.00;;;;;;;8.13;42.34;96306.86;1767494;81;21129;-68
2022/03/25 08:16:05;;;;;;;14.37;7.97;;;;;;;8.09;41.50;96309.06;1767029;81;20951;-68
2022/03/25 08:18:31;;;;;;;14.37;8.13;;;;;;;8.07;41.71;96321.75;1755376;81;21116;-69
2022/03/25 08:20:58;;;;;;;12.53;7.87;;;;;;;8.20;41.44;96309.95;1755087;82;21085;-70
2022/03/25 08:28:59;;;;;;;11.63;6.97;;;;;;;8.61;42.43;96305.20;1754692;81;21074;-73
2022/03/25 08:31:28;;;;;;;15.00;8.13;;;;;;;8.73;40.54;96299.52;1754554;82;21089;-69
2022/03/25 08:33:55;;;;;;;14.03;7.60;;;;;;;8.79;39.83;96295.55;1755211;82;21041;-65
2022/03/25 08:36:22;;;;;;;11.40;8.63;;;;;;;8.77;40.63;96300.84;1754623;81;21037;-68
2022/03/25 08:38:49;;;;;;;13.90;7.60;;;;;;;8.91;41.61;96298.63;1754644;82;21124;-70
2022/03/25 08:41:15;;;;;;;16.20;9.10;;;;;;;9.03;41.95;96300.81;1754763;82;21026;-68
2022/03/25 08:43:42;;;;;;;15.67;8.93;;;;;;;9.08;40.73;96296.41;1757289;81;20998;-69
2022/03/25 08:46:10;;;;;;;16.40;8.70;;;;;;;9.15;41.33;96302.56;1764246;81;21037;-68
2022/03/25 08:48:37;;;;;;;15.37;9.00;;;;;;;9.24;40.46;96301.65;1756069;81;21142;-70
2022/03/25 08:51:04;;;;;;;16.53;8.67;;;;;;;9.35;41.01;96300.30;1805628;78;21045;-71
2022/03/25 08:53:31;;;;;;;15.23;8.47;;;;;;;9.49;39.98;96302.02;1795436;80;21098;-71
2022/03/25 08:55:58;;;;;;;16.27;8.00;;;;;;;9.61;39.72;96295.84;1797308;79;21102;-67
2022/03/25 08:58:24;;;;;;;14.70;9.00;;;;;;;9.79;38.25;96289.62;1748631;82;21574;-68
2022/03/25 09:00:51;;;;;;;12.80;7.70;;;;;;;9.83;37.80;96304.55;1744640;81;21026;-67
2022/03/25 09:03:18;;;;;;;11.90;8.20;;;;;;;9.81;37.79;96302.36;1741576;81;21008;-69
2022/03/25 09:05:44;;;;;;;17.20;8.67;;;;;;;9.86;38.65;96315.07;1767104;81;21068;-70
2022/03/25 09:08:11;;;;;;;17.43;8.77;;;;;;;9.93;38.55;96303.63;1767629;81;20982;-68
2022/03/25 09:10:37;;;;;;;14.20;8.87;;;;;;;9.97;38.53;96300.06;1766131;81;21026;-69
2022/03/25 09:13:04;;;;;;;16.63;9.07;;;;;;;9.96;38.39;96314.59;1767249;81;21554;-70
2022/03/25 09:15:31;;;;;;;16.27;9.00;;;;;;;9.91;40.49;96313.30;1767336;81;21041;-69
2022/03/25 09:17:57;;;;;;;17.70;9.10;;;;;;;10.01;40.04;96307.54;1767051;81;21077;-70
2022/03/25 09:20:24;;;;;;;14.90;9.50;;;;;;;10.07;40.67;96314.08;1767777;81;21547;-68
2022/03/25 09:22:53;;;;;;;18.57;9.73;;;;;;;10.23;40.12;96312.27;1767055;81;20992;-66
2022/03/25 09:25:19;;;;;;;19.17;9.33;;;;;;;10.17;40.97;96311.83;1767250;81;21618;-65
2022/03/25 09:27:45;;;;;;;22.43;9.50;;;;;;;10.36;42.23;96299.91;1767684;81;21022;-68
2022/03/25 09:30:13;;;;;;;28.50;9.40;;;;;;;10.57;41.07;96298.42;1767547;81;21050;-69
2022/03/25 09:32:40;;;;;;;14.70;9.10;;;;;;;10.77;40.51;96303.55;1767374;81;20994;-68
2022/03/25 09:35:10;;;;;;;13.20;8.63;;;;;;;10.78;39.85;96303.10;1767068;81;20966;-72
2022/03/25 09:37:42;;;;;;;26.77;10.10;;;;;;;10.61;39.06;96295.34;1765839;81;21073;-69
2022/03/25 09:40:13;;;;;;;14.57;8.43;;;;;;;10.58;39.27;96298.88;1765590;81;21013;-65
2022/03/25 09:42:41;;;;;;;11.83;8.20;;;;;;;10.76;38.98;96285.98;1759136;81;20990;-69
2022/03/25 09:45:10;;;;;;;13.67;9.23;;;;;;;10.92;39.71;96291.99;1753771;81;21046;-69
2022/03/25 09:47:37;;;;;;;15.77;8.73;;;;;;;11.10;38.70;96291.39;1755111;82;21457;-68
2022/03/25 09:50:07;;;;;;;17.20;10.07;;;;;;;11.09;37.51;96290.95;1754400;81;21061;-69
2022/03/25 09:52:36;;;;;;;20.40;9.50;;;;;;;11.19;38.05;96282.94;1768243;81;21004;-67
2022/03/25 09:55:04;;;;;;;16.03;9.20;;;;;;;11.33;39.08;96274.86;1760563;81;21033;-70
2022/03/25 09:57:32;;;;;;;13.83;7.77;;;;;;;11.62;39.00;96270.59;1767751;81;21013;-70
2022/03/25 09:59:59;;;;;;;14.37;8.27;;;;;;;11.65;36.87;96271.86;1765644;81;21006;-65
2022/03/25 10:02:26;;;;;;;16.20;8.30;;;;;;;11.78;37.28;96262.46;1755386;82;21043;-65
2022/03/25 10:04:54;;;;;;;15.80;8.03;;;;;;;11.68;37.07;96271.81;1755463;82;21058;-67
2022/03/25 10:07:31;;;;;;;14.10;8.13;;;;;;;11.97;37.60;96265.34;1755331;82;21019;-64
2022/03/25 10:10:10;;;;;;;16.33;8.00;;;;;;;12.04;37.27;96255.08;1755403;82;21532;-66
2022/03/25 10:12:40;;;;;;;14.43;8.17;;;;;;;11.98;36.20;96260.46;1752613;82;21018;-64
2022/03/25 10:15:25;;;;;;;17.80;8.70;;;;;;;12.03;36.61;96265.24;1756430;82;21049;-64
2022/03/25 10:18:03;;;;;;;12.17;8.00;;;;;;;12.09;36.10;96258.98;1756291;82;21071;-65
2022/03/25 10:20:38;;;;;;;15.87;8.03;;;;;;;11.96;36.40;96266.67;1756192;81;21030;-65
2022/03/25 10:23:18;;;;;;;14.23;6.80;;;;;;;12.13;37.15;96263.35;1756461;82;21074;-65
2022/03/25 10:25:56;;;;;;;12.37;7.13;;;;;;;12.38;36.83;96255.94;1756448;82;21071;-65
2022/03/25 10:28:40;;;;;;;14.73;7.70;;;;;;;12.53;36.27;96254.38;1754489;82;21534;-66
2022/03/25 10:31:19;;;;;;;13.73;8.13;;;;;;;12.61;36.14;96257.35;1755409;82;21050;-65
2022/03/25 10:33:54;;;;;;;14.97;8.33;;;;;;;12.69;35.67;96257.64;1755756;81;21076;-66
2022/03/25 10:36:25;;;;;;;13.50;8.13;;;;;;;12.71;35.49;96269.09;1755743;81;21356;-67
2022/03/25 10:39:04;;;;;;;19.67;10.83;;;;;;;12.60;35.16;96248.55;1755878;81;21058;-65
2022/03/25 10:41:45;;;;;;;17.87;8.10;;;;;;;12.60;35.54;96251.61;1758574;81;20978;-65
2022/03/25 10:44:12;;;;;;;18.03;8.33;;;;;;;12.65;36.00;96255.96;1727376;83;20974;-65
2022/03/25 10:46:45;;;;;;;10.93;6.93;;;;;;;12.83;35.02;96249.94;1727260;83;21093;-65
2022/03/25 10:49:16;;;;;;;13.28;8.18;;;;;;;12.76;35.72;96251.34;1742600;82;21050;-65
2022/03/25 10:51:56;;;;;;;10.23;7.30;;;;;;;12.86;34.91;96247.23;1742674;82;20992;-65
2022/03/25 10:54:28;;;;;;;15.77;8.17;;;;;;;12.89;36.14;96248.50;1742372;82;20980;-65
2022/03/25 10:56:59;;;;;;;11.23;7.37;;;;;;;12.92;35.01;96237.84;1727332;83;21013;-65
2022/03/25 10:59:33;;;;;;;13.63;7.17;;;;;;;12.94;36.05;96242.21;1727118;83;21038;-65
2022/03/25 11:02:03;;;;;;;16.83;8.30;;;;;;;13.16;34.02;96245.81;1750373;81;21107;-65
2022/03/25 11:04:30;;;;;;;15.97;7.93;;;;;;;13.16;34.25;96241.38;1755001;81;21027;-65
2022/03/25 11:06:58;;;;;;;15.03;7.77;;;;;;;13.37;33.84;96241.45;1755006;82;21500;-65
2022/03/25 11:09:27;;;;;;;11.27;7.57;;;;;;;13.79;34.22;96234.02;1754974;81;21027;-65
2022/03/25 11:11:55;;;;;;;14.03;7.97;;;;;;;14.24;32.55;96240.09;1754886;82;21046;-65
2022/03/25 11:14:23;;;;;;;23.93;8.23;;;;;;;14.58;32.37;96232.69;1755172;82;21054;-65
2022/03/25 11:16:59;;;;;;;15.72;8.58;;;;;;;14.39;33.34;96231.34;1755074;82;20990;-65
2022/03/25 11:19:27;;;;;;;12.98;8.88;;;;;;;14.55;32.33;96227.46;1755069;82;20991;-65
2022/03/25 11:21:57;;;;;;;14.87;7.92;;;;;;;14.68;33.08;96238.20;1755022;82;21045;-65
2022/03/25 11:24:48;;;;;;;11.93;7.40;;;;;;;15.12;31.16;96230.91;1754904;82;21046;-65
2022/03/25 11:27:34;;;;;;;12.95;8.03;;;;;;;15.38;30.64;96228.46;1759264;81;21042;-65
2022/03/25 11:30:05;;;;;;;11.15;7.00;;;;;;;15.92;30.07;96219.84;1759823;81;20990;-65
2022/03/25 11:32:32;;;;;;;16.93;7.72;;;;;;;15.71;28.33;96224.02;1760313;81;21417;-65
2022/03/25 11:35:04;;;;;;;14.33;8.25;;;;;;;16.17;27.75;96211.99;1787835;80;20991;-65
2022/03/25 11:37:33;;;;;;;18.55;8.63;;;;;;;15.86;28.58;96219.58;1787587;80;21010;-66